Time;durP1;ratioP1;P1;durP2;ratioP2;P2;SDS_P1;SDS_P2;PMS_P1;PMS_P2;Temp;Humidity;BMP_temperature;BMP_pressure;BME280_temperature;BME280_humidity;BME280_pressure;Samples;Min_cycle;Max_cycle;Signal;HPM_P1;HPM_P2
2022/05/25 00:02:23;;;;;;;11.75;6.70;;;;;;;17.17;66.00;93791.22;5123070;28;20031;-77
2022/05/25 00:04:49;;;;;;;9.85;6.32;;;;;;;17.15;66.14;93790.03;5122870;28;20032;-77
2022/05/25 00:07:16;;;;;;;11.23;5.93;;;;;;;17.13;65.51;93784.22;5127151;28;20262;-77
2022/05/25 00:09:42;;;;;;;13.65;6.13;;;;;;;17.12;65.79;93790.75;5127094;28;20073;-77
2022/05/25 00:12:09;;;;;;;11.52;6.25;;;;;;;17.14;65.91;93785.78;5127068;28;20099;-77
2022/05/25 00:14:36;;;;;;;14.13;7.10;;;;;;;17.11;65.88;93778.41;5127166;28;20028;-77
2022/05/25 00:17:02;;;;;;;12.02;6.25;;;;;;;17.08;65.73;93788.00;5126944;28;20074;-77
2022/05/25 00:22:11;;;;;;;14.93;6.00;;;;;;;17.04;65.81;93796.00;5126787;28;20098;-77
2022/05/25 00:24:37;;;;;;;9.10;5.43;;;;;;;17.02;65.82;93792.09;5126675;28;20027;-77
2022/05/25 00:27:02;;;;;;;16.00;6.85;;;;;;;17.00;65.92;93795.13;5126737;28;20030;-77
2022/05/25 00:29:28;;;;;;;15.52;6.38;;;;;;;16.96;66.33;93791.59;5108553;28;20031;-77
2022/05/25 00:31:53;;;;;;;16.45;6.93;;;;;;;17.00;66.48;93795.13;5126618;28;20096;-77
2022/05/25 00:34:19;;;;;;;15.18;6.22;;;;;;;16.94;66.33;93788.47;5126629;28;20031;-76
2022/05/25 00:36:44;;;;;;;14.75;7.13;;;;;;;16.95;66.39;93784.66;5126510;28;20023;-76
2022/05/25 00:39:10;;;;;;;21.02;7.03;;;;;;;16.94;66.59;93791.19;5126526;28;20096;-75
2022/05/25 00:41:36;;;;;;;14.27;7.10;;;;;;;16.91;66.52;93783.78;5126611;28;20236;-76
2022/05/25 00:44:03;;;;;;;12.50;6.78;;;;;;;16.89;66.76;93793.38;5126306;28;20047;-76
2022/05/25 00:46:32;;;;;;;9.57;6.35;;;;;;;16.83;66.75;93790.16;5126347;28;20027;-75
2022/05/25 00:49:18;;;;;;;14.00;5.90;;;;;;;16.81;66.47;93785.16;5126004;28;20050;-76
2022/05/25 00:51:58;;;;;;;8.82;5.90;;;;;;;16.80;66.81;93790.84;5126414;28;20049;-76
2022/05/25 00:54:29;;;;;;;15.80;7.22;;;;;;;16.78;66.72;93793.91;5126260;28;20035;-75
2022/05/25 00:56:58;;;;;;;16.65;6.72;;;;;;;16.76;66.98;93795.38;5107937;28;20034;-75
2022/05/25 00:59:29;;;;;;;11.65;6.47;;;;;;;16.68;66.98;93793.69;5126291;28;20199;-75
2022/05/25 01:01:56;;;;;;;8.18;5.97;;;;;;;16.67;67.32;93802.88;5126069;28;20019;-75
2022/05/25 01:04:22;;;;;;;14.23;6.75;;;;;;;16.63;67.22;93792.84;5125991;28;20026;-75
2022/05/25 01:07:06;;;;;;;11.30;6.30;;;;;;;16.61;67.49;93789.72;5125825;28;20371;-76
2022/05/25 01:09:45;;;;;;;10.50;6.90;;;;;;;16.57;67.36;93802.31;5125948;28;20034;-76
2022/05/25 01:12:19;;;;;;;12.38;7.70;;;;;;;16.57;67.85;93802.31;5126208;28;20084;-77
2022/05/25 01:14:50;;;;;;;19.58;8.38;;;;;;;16.56;67.86;93805.34;5125673;28;20031;-77
2022/05/25 01:17:26;;;;;;;13.77;6.93;;;;;;;16.55;67.75;93803.81;5126047;28;20052;-76
2022/05/25 01:20:08;;;;;;;8.90;6.57;;;;;;;16.54;67.79;93813.00;5125733;28;20031;-78
2022/05/25 01:22:55;;;;;;;13.73;7.35;;;;;;;16.50;68.19;93812.13;5125759;28;20310;-77
2022/05/25 01:25:46;;;;;;;13.75;7.53;;;;;;;16.47;68.19;93813.63;5125533;28;20207;-77
2022/05/25 01:28:18;;;;;;;17.13;7.75;;;;;;;16.39;68.53;93803.84;5101851;28;20102;-77
2022/05/25 01:30:51;;;;;;;19.73;7.90;;;;;;;16.38;68.44;93813.03;5125452;28;20028;-76
2022/05/25 01:33:39;;;;;;;13.02;7.78;;;;;;;16.36;68.48;93816.06;5125529;28;20031;-77
2022/05/25 01:36:23;;;;;;;12.70;7.57;;;;;;;16.34;68.64;93812.94;5125407;28;20027;-76
2022/05/25 01:38:59;;;;;;;14.02;7.53;;;;;;;16.28;69.04;93819.72;5125904;28;20091;-76
2022/05/25 01:41:42;;;;;;;11.35;7.72;;;;;;;16.23;69.20;93812.72;5126291;28;20098;-76
2022/05/25 01:44:18;;;;;;;17.52;6.95;;;;;;;16.20;69.28;93818.00;5126366;28;20023;-76
2022/05/25 01:46:56;;;;;;;17.27;7.40;;;;;;;16.16;69.28;93809.88;5126112;28;20027;-76
2022/05/25 01:49:33;;;;;;;12.10;7.25;;;;;;;16.18;69.61;93817.56;5126134;28;20076;-76
2022/05/25 01:52:05;;;;;;;13.75;7.72;;;;;;;16.14;69.81;93814.81;5125431;28;20020;-76
2022/05/25 01:54:34;;;;;;;;;;;;;;;16.12;70.18;93816.28;5125563;28;20032;-76
2022/05/25 01:57:09;;;;;;;21.70;8.02;;;;;;;16.06;70.22;93818.47;5124975;28;19911;-77
2022/05/25 01:59:35;;;;;;;13.23;9.73;;;;;;;16.06;70.08;93823.84;5125019;28;20363;-76
2022/05/25 02:04:52;;;;;;;15.77;7.82;;;;;;;16.04;70.19;93831.47;5124862;28;20076;-76
2022/05/25 02:07:20;;;;;;;18.15;7.70;;;;;;;15.99;70.09;93834.41;5125039;28;20035;-76
2022/05/25 02:09:59;;;;;;;14.60;9.85;;;;;;;16.00;70.11;93828.69;5124946;28;20269;-77
2022/05/25 02:12:39;;;;;;;21.05;8.57;;;;;;;15.99;70.07;93835.19;5124887;28;20027;-76
2022/05/25 02:15:18;;;;;;;18.27;9.88;;;;;;;15.98;69.95;93835.56;5124552;28;20131;-77
2022/05/25 02:17:53;;;;;;;13.35;9.93;;;;;;;15.96;70.58;93846.66;5124856;28;20124;-76
2022/05/25 02:20:32;;;;;;;15.52;8.80;;;;;;;15.93;70.54;93841.94;5124609;28;20111;-77
2022/05/25 02:23:10;;;;;;;23.63;14.18;;;;;;;15.94;70.56;93848.13;5124779;28;20020;-77
2022/05/25 02:25:58;;;;;;;26.10;16.67;;;;;;;15.94;70.97;93853.50;5124802;28;20023;-77
2022/05/25 02:28:29;;;;;;;25.60;16.25;;;;;;;15.91;70.92;93856.88;5124234;28;20041;-77
2022/05/25 02:30:58;;;;;;;29.65;16.42;;;;;;;15.86;71.00;93849.09;5124598;28;20035;-77
2022/05/25 02:33:34;;;;;;;30.15;16.00;;;;;;;15.85;70.96;93853.66;5124358;28;20076;-76
2022/05/25 02:36:01;;;;;;;29.90;16.15;;;;;;;15.85;71.02;93861.72;5124192;28;20375;-77
2022/05/25 02:38:27;;;;;;;30.60;17.17;;;;;;;15.86;70.76;93862.53;5124517;28;20016;-76
2022/05/25 02:41:03;;;;;;;32.28;17.30;;;;;;;15.84;70.87;93863.63;5124303;28;20086;-78
2022/05/25 02:43:29;;;;;;;30.48;17.38;;;;;;;15.85;70.80;93867.09;5124188;28;20088;-77
2022/05/25 02:45:54;;;;;;;24.67;16.88;;;;;;;15.83;70.73;93870.16;5124023;28;20202;-78
2022/05/25 02:48:20;;;;;;;27.50;16.73;;;;;;;15.82;71.06;93876.63;5123978;28;20087;-77
2022/05/25 02:50:45;;;;;;;35.65;17.48;;;;;;;15.83;70.79;93875.53;5124224;28;20278;-76
2022/05/25 02:53:11;;;;;;;33.20;16.98;;;;;;;15.82;70.98;93879.31;5124144;28;20026;-76
2022/05/25 02:55:37;;;;;;;31.20;16.50;;;;;;;15.80;70.94;93884.25;5124079;28;20128;-77
2022/05/25 02:58:03;;;;;;;27.95;17.00;;;;;;;15.77;71.05;93876.91;5123896;28;20024;-76
2022/05/25 03:00:28;;;;;;;26.45;15.30;;;;;;;15.78;70.85;93877.69;5123937;28;20068;-75
2022/05/25 03:02:56;;;;;;;26.10;15.55;;;;;;;15.80;70.64;93875.41;5122685;28;20036;-76
2022/05/25 03:05:23;;;;;;;24.05;15.05;;;;;;;15.78;70.71;93878.44;5123895;28;20064;-76
2022/05/25 03:07:48;;;;;;;22.73;14.48;;;;;;;15.75;70.62;93871.09;5123717;28;20030;-76
2022/05/25 03:10:14;;;;;;;24.35;13.75;;;;;;;15.75;70.67;93879.16;5123841;28;20087;-76
2022/05/25 03:12:40;;;;;;;28.00;14.00;;;;;;;15.74;70.40;93882.94;5123856;28;20031;-76
2022/05/25 03:15:06;;;;;;;21.27;11.93;;;;;;;15.74;70.32;93891.00;5123535;28;20030;-76
2022/05/25 03:17:31;;;;;;;24.40;11.77;;;;;;;15.71;70.52;93894.34;5123571;28;20274;-76
2022/05/25 03:19:57;;;;;;;25.67;12.68;;;;;;;15.73;70.48;93891.34;5123530;28;20030;-76
2022/05/25 03:22:24;;;;;;;18.30;10.70;;;;;;;15.71;70.57;93902.41;5123634;28;20313;-76
2022/05/25 03:24:49;;;;;;;19.58;11.70;;;;;;;15.69;70.51;93907.34;5123418;28;20020;-76
2022/05/25 03:27:15;;;;;;;16.70;11.27;;;;;;;15.68;70.82;93905.78;5123411;28;20065;-76
2022/05/25 03:29:42;;;;;;;23.48;11.27;;;;;;;15.71;70.95;93904.31;5123706;28;20026;-76
2022/05/25 03:32:09;;;;;;;24.33;12.75;;;;;;;15.73;70.62;93897.50;5123507;28;20317;-76
2022/05/25 03:34:34;;;;;;;22.02;12.02;;;;;;;15.76;70.77;93906.78;5123415;28;20060;-76
2022/05/25 03:36:59;;;;;;;27.55;13.38;;;;;;;15.76;70.81;93912.16;5123383;28;20019;-76
2022/05/25 03:39:26;;;;;;;24.13;13.70;;;;;;;15.77;71.10;93919.09;5122962;28;20256;-76
2022/05/25 03:41:59;;;;;;;25.27;13.40;;;;;;;15.80;71.10;93921.09;5122760;28;20023;-75
2022/05/25 03:44:24;;;;;;;20.95;13.27;;;;;;;15.81;71.37;93928.84;5123340;28;20050;-76
2022/05/25 03:46:51;;;;;;;16.85;11.90;;;;;;;15.83;71.39;93937.34;5123181;28;20023;-77
2022/05/25 03:49:16;;;;;;;27.60;13.00;;;;;;;15.87;71.49;93928.56;5123333;28;20024;-76
2022/05/25 03:51:42;;;;;;;20.10;12.07;;;;;;;15.88;71.66;93930.16;5123505;28;20247;-76
2022/05/25 03:54:09;;;;;;;21.15;12.90;;;;;;;15.93;71.92;93937.94;5123146;28;20386;-76
2022/05/25 03:56:34;;;;;;;22.58;11.25;;;;;;;15.97;71.79;93936.91;5123292;28;20031;-76
2022/05/25 03:59:00;;;;;;;19.48;11.00;;;;;;;15.99;71.41;93941.94;5123134;28;20027;-77
2022/05/25 04:01:25;;;;;;;20.20;11.95;;;;;;;16.01;71.35;93947.75;5123147;28;20026;-76
2022/05/25 04:03:51;;;;;;;24.15;12.43;;;;;;;16.01;71.47;93945.84;5123166;28;20061;-76
2022/05/25 04:06:16;;;;;;;20.63;12.10;;;;;;;16.02;71.59;93946.63;5123112;28;20047;-77
2022/05/25 04:08:42;;;;;;;23.27;12.63;;;;;;;16.04;71.74;93953.22;5123347;28;20039;-78
2022/05/25 04:11:07;;;;;;;23.92;11.88;;;;;;;16.08;72.03;93947.94;5123079;28;20031;-78
2022/05/25 04:13:33;;;;;;;20.45;12.82;;;;;;;16.16;71.91;93951.56;5123095;28;20030;-77
2022/05/25 04:15:58;;;;;;;22.30;13.45;;;;;;;16.22;71.45;93951.00;5122992;28;20024;-77
2022/05/25 04:18:24;;;;;;;24.13;13.50;;;;;;;16.29;70.98;93939.63;5122986;28;20020;-77
2022/05/25 04:20:49;;;;;;;19.38;12.57;;;;;;;16.36;71.45;93949.78;5122989;28;20309;-77
2022/05/25 04:23:15;;;;;;;20.45;13.43;;;;;;;16.39;70.93;93952.56;5123161;28;20091;-77
2022/05/25 04:25:41;;;;;;;18.67;12.80;;;;;;;16.40;70.33;93937.19;5122895;28;20310;-77
2022/05/25 04:28:07;;;;;;;18.70;13.80;;;;;;;16.41;70.56;93946.84;5123119;28;20092;-77
2022/05/25 04:30:33;;;;;;;19.02;12.15;;;;;;;16.42;70.30;93941.13;5104631;28;20026;-77
2022/05/25 04:32:58;;;;;;;20.45;12.48;;;;;;;16.43;70.08;93947.28;5122616;28;20016;-77
2022/05/25 04:35:26;;;;;;;21.70;12.45;;;;;;;16.44;70.01;93946.13;5122392;28;20259;-77
2022/05/25 04:37:55;;;;;;;20.83;14.25;;;;;;;16.44;70.01;93946.13;5122404;28;20027;-77
2022/05/25 04:40:26;;;;;;;28.15;13.25;;;;;;;16.44;70.42;93956.88;5122883;28;20026;-76
2022/05/25 04:42:53;;;;;;;24.60;12.95;;;;;;;16.43;70.53;93964.19;5122671;28;20020;-75
2022/05/25 04:45:20;;;;;;;20.17;13.25;;;;;;;16.38;70.77;93958.28;5122567;28;20015;-76
2022/05/25 04:47:46;;;;;;;21.27;12.70;;;;;;;16.45;70.75;93959.22;5122574;28;20047;-76
2022/05/25 04:50:14;;;;;;;19.73;12.52;;;;;;;16.56;70.64;93962.16;5122988;28;20015;-82
2022/05/25 04:52:39;;;;;;;18.23;12.32;;;;;;;16.63;70.17;93958.91;5125701;28;20310;-82
2022/05/25 04:55:07;;;;;;;26.13;14.30;;;;;;;16.68;70.45;93950.53;5108316;28;20080;-83
2022/05/25 04:57:32;;;;;;;23.60;13.82;;;;;;;16.76;70.45;93952.25;5126489;28;20269;-81
2022/05/25 05:00:00;;;;;;;19.58;13.15;;;;;;;16.87;70.49;93941.00;5126419;28;20021;-80
2022/05/25 05:02:28;;;;;;;22.73;12.48;;;;;;;16.97;70.20;93941.22;5126165;28;20020;-80
2022/05/25 05:04:53;;;;;;;27.52;13.20;;;;;;;17.05;69.70;93951.00;5126075;28;20082;-80
2022/05/25 05:07:28;;;;;;;29.17;14.02;;;;;;;17.03;69.67;93950.59;5125999;28;20027;-80
2022/05/25 05:09:53;;;;;;;21.83;13.65;;;;;;;16.92;70.18;93954.97;5126248;28;20214;-80
2022/05/25 05:12:19;;;;;;;23.65;13.02;;;;;;;16.92;69.81;93960.34;5126032;28;20015;-80
2022/05/25 05:14:44;;;;;;;22.35;12.30;;;;;;;16.96;69.58;93955.06;5126180;28;20019;-80
2022/05/25 05:17:10;;;;;;;22.13;13.57;;;;;;;16.98;69.88;93948.19;5126083;28;20369;-80
2022/05/25 05:19:35;;;;;;;24.48;12.25;;;;;;;17.01;69.59;93962.84;5125957;28;20015;-80
2022/05/25 05:22:01;;;;;;;18.73;12.70;;;;;;;16.98;69.94;93964.34;5125707;28;20020;-80
2022/05/25 05:24:28;;;;;;;21.40;14.07;;;;;;;17.02;69.83;93975.19;5125816;28;20056;-80
2022/05/25 05:26:54;;;;;;;22.30;13.48;;;;;;;17.06;69.67;93962.59;5125895;28;20022;-80
2022/05/25 05:29:20;;;;;;;33.95;12.77;;;;;;;17.10;70.22;93973.44;5126025;28;20019;-81
2022/05/25 05:31:46;;;;;;;23.65;15.05;;;;;;;17.16;70.39;93970.13;5125997;28;20214;-80
2022/05/25 05:34:11;;;;;;;21.13;14.40;;;;;;;17.20;70.45;93965.59;5125702;28;20015;-80
2022/05/25 05:36:43;;;;;;;21.55;12.77;;;;;;;17.20;69.70;93975.59;5125477;28;20035;-79
2022/05/25 05:39:12;;;;;;;23.88;13.85;;;;;;;17.33;69.89;93979.72;5125784;28;20214;-81
2022/05/25 05:41:46;;;;;;;23.35;13.30;;;;;;;17.42;69.22;93983.00;5125484;28;20211;-81
2022/05/25 05:44:16;;;;;;;25.73;14.18;;;;;;;17.43;69.96;93984.53;5125702;28;20054;-81
2022/05/25 05:46:42;;;;;;;24.92;13.30;;;;;;;17.43;69.29;93995.31;5125597;28;20031;-83
2022/05/25 05:49:09;;;;;;;21.38;12.73;;;;;;;17.52;68.70;94005.09;5125449;28;20316;-81
2022/05/25 05:51:36;;;;;;;26.83;12.65;;;;;;;17.59;68.55;93992.56;5125738;28;20205;-83
2022/05/25 05:54:03;;;;;;;28.60;13.32;;;;;;;17.56;68.58;94004.03;5125420;28;20051;-82
2022/05/25 05:56:29;;;;;;;27.45;14.48;;;;;;;17.62;68.48;94002.63;5125609;28;20098;-83
2022/05/25 05:58:55;;;;;;;22.77;12.55;;;;;;;17.73;68.86;94002.88;5125667;28;20039;-82
2022/05/25 06:01:20;;;;;;;26.35;12.27;;;;;;;17.82;68.19;94008.81;5106914;28;20313;-81
2022/05/25 06:03:46;;;;;;;24.70;11.50;;;;;;;17.93;67.50;93990.19;5124065;28;20031;-80
2022/05/25 06:06:11;;;;;;;20.00;12.32;;;;;;;18.03;67.68;94003.09;5124824;28;20043;-80
2022/05/25 06:08:37;;;;;;;21.98;12.18;;;;;;;18.10;67.26;94002.44;5124974;28;20039;-82
2022/05/25 06:11:02;;;;;;;24.48;11.77;;;;;;;18.14;66.15;94000.59;5124952;28;20049;-81
2022/05/25 06:13:28;;;;;;;21.73;12.55;;;;;;;18.18;66.62;93996.03;5124856;28;20283;-83
2022/05/25 06:21:24;;;;;;;17.98;12.07;;;;;;;18.29;66.65;94000.84;5124843;28;20019;-81
2022/05/25 06:23:50;;;;;;;20.85;12.40;;;;;;;18.40;66.82;94008.00;5124689;28;20044;-83
2022/05/25 06:26:17;;;;;;;33.97;15.35;;;;;;;18.53;66.56;94003.22;5124815;28;20019;-83
2022/05/25 06:28:43;;;;;;;32.38;14.50;;;;;;;18.71;65.92;94005.44;5124360;28;20024;-83
2022/05/25 06:31:08;;;;;;;19.67;12.10;;;;;;;18.85;65.05;94011.09;5122713;28;20106;-83
2022/05/25 06:33:34;;;;;;;20.02;11.80;;;;;;;18.92;64.97;94013.91;5123473;28;20054;-82
2022/05/25 06:36:13;;;;;;;22.63;12.93;;;;;;;19.09;64.26;94019.94;5123107;28;20030;-81
2022/05/25 06:38:38;;;;;;;23.67;11.73;;;;;;;19.22;63.29;94018.59;5124483;28;20238;-81
2022/05/25 06:41:04;;;;;;;34.38;13.32;;;;;;;19.41;63.53;94012.28;5122980;28;20021;-81
2022/05/25 06:43:29;;;;;;;21.90;12.05;;;;;;;19.58;62.08;94009.06;5106344;28;20326;-82
2022/05/25 06:45:55;;;;;;;24.02;13.02;;;;;;;19.68;61.65;94012.25;5124332;28;20020;-83
2022/05/25 06:48:22;;;;;;;19.05;11.05;;;;;;;19.78;61.89;94006.22;5123981;28;20059;-82
2022/05/25 06:50:47;;;;;;;20.98;12.30;;;;;;;19.88;60.96;94002.13;5124221;28;20031;-81
2022/05/25 06:53:13;;;;;;;18.92;12.32;;;;;;;19.97;60.53;94008.81;5123987;28;20099;-81
2022/05/25 06:55:38;;;;;;;20.05;11.88;;;;;;;20.09;60.44;94015.09;5123867;28;20099;-80
2022/05/25 06:58:03;;;;;;;20.38;11.65;;;;;;;20.18;60.58;94013.66;5123949;28;20149;-80
2022/05/25 07:00:29;;;;;;;23.70;11.60;;;;;;;20.28;60.71;94006.81;5123875;28;20029;-80
2022/05/25 07:02:54;;;;;;;20.80;11.40;;;;;;;20.41;59.68;94010.81;5123956;28;20020;-78
2022/05/25 07:05:20;;;;;;;26.10;11.45;;;;;;;20.49;58.58;94016.28;5123734;28;20020;-76
2022/05/25 07:07:45;;;;;;;25.15;11.23;;;;;;;20.44;58.46;94026.31;5123982;28;20055;-76
2022/05/25 07:10:11;;;;;;;21.00;11.23;;;;;;;20.39;59.19;94028.56;5123856;28;20019;-76
2022/05/25 07:12:36;;;;;;;20.20;11.02;;;;;;;20.42;58.91;94030.53;5123715;28;20103;-78
2022/05/25 07:15:05;;;;;;;24.17;11.77;;;;;;;20.45;58.68;94027.09;5123601;28;20023;-77
2022/05/25 07:17:33;;;;;;;22.75;12.32;;;;;;;20.50;58.08;94037.59;5123738;28;20015;-76
2022/05/25 07:19:58;;;;;;;23.40;10.00;;;;;;;20.54;58.42;94029.50;5122686;28;20285;-76
2022/05/25 07:22:24;;;;;;;16.35;10.07;;;;;;;20.52;58.31;94038.00;5123589;28;20024;-77
2022/05/25 07:24:49;;;;;;;18.70;10.18;;;;;;;20.56;57.91;94030.69;5123720;28;20043;-76
2022/05/25 07:27:15;;;;;;;26.02;10.70;;;;;;;20.61;57.22;94040.44;5123945;28;20030;-78
2022/05/25 07:29:41;;;;;;;23.65;9.82;;;;;;;20.55;57.68;94044.59;5123575;28;20074;-76
2022/05/25 07:32:09;;;;;;;25.52;10.93;;;;;;;20.53;56.60;94039.53;5123711;28;20043;-76
2022/05/25 07:34:45;;;;;;;25.45;10.48;;;;;;;20.54;57.15;94040.34;5123330;28;20361;-76
2022/05/25 07:37:21;;;;;;;19.40;9.50;;;;;;;20.51;56.62;94031.00;5123404;28;20027;-77
2022/05/25 07:39:52;;;;;;;20.98;9.98;;;;;;;20.55;56.96;94031.81;5123590;28;20024;-77
2022/05/25 07:42:18;;;;;;;21.77;9.15;;;;;;;20.68;57.56;94034.28;5123259;28;20337;-76
2022/05/25 07:44:54;;;;;;;28.02;9.10;;;;;;;20.89;57.08;94018.25;5123489;28;20303;-76
2022/05/25 07:47:19;;;;;;;17.23;8.30;;;;;;;21.06;56.83;94024.16;5123557;28;20222;-75
2022/05/25 07:49:45;;;;;;;21.63;7.82;;;;;;;21.20;55.49;94013.44;5123240;28;20027;-77
2022/05/25 07:52:10;;;;;;;16.05;8.85;;;;;;;21.32;54.69;94010.41;5123570;28;20051;-75
2022/05/25 07:54:39;;;;;;;17.13;8.43;;;;;;;21.47;54.44;94015.97;5123175;28;20104;-76
2022/05/25 07:57:05;;;;;;;14.77;8.65;;;;;;;21.62;55.45;94012.94;5123144;28;20027;-76
2022/05/25 07:59:30;;;;;;;15.55;8.52;;;;;;;21.54;54.62;94011.34;5123124;28;20022;-76
2022/05/25 08:07:35;;;;;;;17.65;7.13;;;;;;;21.90;53.69;94016.19;5123311;28;20222;-81
2022/05/25 08:10:06;;;;;;;22.40;7.70;;;;;;;22.09;52.77;94021.31;5123374;28;20020;-83
2022/05/25 08:12:34;;;;;;;26.58;8.68;;;;;;;22.15;52.34;94022.50;5123280;28;20064;-84
2022/05/25 08:15:00;;;;;;;20.75;7.97;;;;;;;22.24;51.96;94011.28;5123219;28;20030;-83
2022/05/25 08:17:26;;;;;;;13.30;7.63;;;;;;;22.33;52.17;94027.25;5123135;28;20036;-89
2022/05/25 08:19:51;;;;;;;12.18;6.70;;;;;;;22.47;51.84;94018.31;5105156;28;20019;-83
2022/05/25 08:22:16;;;;;;;12.77;6.45;;;;;;;22.62;50.32;94012.53;5123186;28;20030;-82
2022/05/25 08:24:43;;;;;;;11.57;6.28;;;;;;;22.67;49.21;94005.94;5123037;28;20102;-85
2022/05/25 08:27:08;;;;;;;19.75;6.65;;;;;;;22.78;49.85;94011.41;5125366;28;20031;-86
2022/05/25 08:29:34;;;;;;;19.15;6.93;;;;;;;22.87;48.59;94009.06;5127131;28;20087;-86
2022/05/25 08:31:59;;;;;;;15.68;6.40;;;;;;;22.90;49.65;93996.63;5126809;28;20022;-83
2022/05/25 08:34:27;;;;;;;12.27;6.80;;;;;;;23.04;49.96;94002.13;5126859;28;20016;-82
2022/05/25 08:36:54;;;;;;;22.02;6.57;;;;;;;23.18;49.21;94015.72;5126903;28;20139;-85
2022/05/25 08:39:20;;;;;;;16.20;6.32;;;;;;;23.30;48.96;94024.63;5126796;28;20020;-86
2022/05/25 08:41:48;;;;;;;16.90;6.40;;;;;;;23.42;47.57;94019.53;5126781;28;20037;-84
2022/05/25 08:44:14;;;;;;;22.50;7.40;;;;;;;23.43;47.90;94033.94;5126566;28;20030;-80
2022/05/25 08:46:40;;;;;;;15.88;7.25;;;;;;;23.42;47.58;94033.16;5126720;28;20019;-86
2022/05/25 08:49:14;;;;;;;17.90;7.10;;;;;;;23.51;48.13;94032.75;5126747;28;20391;-85
2022/05/25 08:51:49;;;;;;;23.40;6.82;;;;;;;23.60;47.31;94044.00;5127440;28;20015;-88
2022/05/25 08:54:16;;;;;;;16.73;7.13;;;;;;;23.63;46.80;94039.75;5126908;28;20015;-85
2022/05/25 08:57:03;;;;;;;18.27;6.28;;;;;;;23.64;47.77;94042.06;5126290;28;20189;-78
2022/05/25 08:59:42;;;;;;;13.88;6.05;;;;;;;23.74;47.53;94032.31;5126565;28;20039;-84
2022/05/25 09:02:27;;;;;;;14.70;5.97;;;;;;;23.88;47.85;94025.31;5126305;28;20302;-81
2022/05/25 09:05:16;;;;;;;13.27;7.30;;;;;;;24.06;47.25;94028.75;5126150;28;20090;-83
2022/05/25 09:07:52;;;;;;;18.80;6.90;;;;;;;24.17;46.54;94029.47;5125865;28;20042;-83
2022/05/25 09:10:19;;;;;;;26.30;6.82;;;;;;;24.25;46.53;94019.34;5126435;28;20019;-83
2022/05/25 09:12:49;;;;;;;18.08;7.32;;;;;;;24.26;45.77;94034.47;5125981;28;20020;-85
2022/05/25 09:15:26;;;;;;;23.17;7.18;;;;;;;24.28;45.34;94021.25;5125929;28;20019;-82
2022/05/25 09:18:00;;;;;;;19.58;6.53;;;;;;;24.33;46.42;94033.69;5126319;28;20102;-79
2022/05/25 09:20:30;;;;;;;23.08;6.82;;;;;;;24.45;46.89;94035.19;5126334;28;20027;-82
2022/05/25 09:22:57;;;;;;;17.00;6.70;;;;;;;24.46;45.17;94045.69;5125962;28;20038;-81
2022/05/25 09:25:23;;;;;;;13.68;6.97;;;;;;;24.45;45.02;94044.13;5125854;28;20022;-79
2022/05/25 09:28:04;;;;;;;23.60;6.88;;;;;;;24.54;45.70;94049.94;5125923;28;20023;-79
2022/05/25 09:30:33;;;;;;;26.13;7.25;;;;;;;24.69;45.52;94052.59;5126273;28;20024;-82
2022/05/25 09:33:07;;;;;;;15.40;7.57;;;;;;;24.73;45.07;94039.72;5126271;28;20016;-85
2022/05/25 09:35:45;;;;;;;23.50;7.35;;;;;;;24.84;44.08;94045.88;5125875;28;20375;-85
2022/05/25 09:38:27;;;;;;;14.27;6.60;;;;;;;24.88;43.78;94043.13;5124661;28;20080;-80
2022/05/25 09:41:04;;;;;;;16.15;6.68;;;;;;;24.85;43.93;94041.19;5126648;28;20027;-86
2022/05/25 09:43:31;;;;;;;14.68;7.15;;;;;;;24.87;44.74;94036.88;5125683;28;20020;-90
2022/05/25 09:46:09;;;;;;;15.10;6.15;;;;;;;24.90;46.77;94040.78;5125389;28;20039;-85
2022/05/25 09:48:48;;;;;;;14.75;6.85;;;;;;;24.90;45.28;94032.63;5125422;28;20067;-82
2022/05/25 09:51:35;;;;;;;16.70;6.93;;;;;;;24.97;45.10;94027.88;5125591;28;20031;-81
2022/05/25 09:54:14;;;;;;;16.15;6.40;;;;;;;25.07;45.11;94031.69;5125667;28;20016;-85
2022/05/25 09:56:50;;;;;;;13.10;6.38;;;;;;;25.20;45.65;94032.75;5125668;28;20073;-80
2022/05/25 09:59:37;;;;;;;21.25;7.68;;;;;;;25.43;45.53;94026.72;5125578;28;20214;-83
2022/05/25 10:02:43;;;;;;;22.10;7.38;;;;;;;25.66;45.15;94016.38;5125439;28;20031;-82
2022/05/25 10:05:19;;;;;;;27.17;7.03;;;;;;;25.85;44.03;94004.09;5125578;28;20084;-83
2022/05/25 10:07:55;;;;;;;19.23;7.32;;;;;;;26.02;43.58;93998.44;5125254;28;20222;-83
2022/05/25 10:10:33;;;;;;;15.32;6.60;;;;;;;26.18;43.48;93995.16;5125509;28;20019;-83
2022/05/25 10:13:04;;;;;;;26.17;9.02;;;;;;;26.34;42.81;94000.03;5106853;28;20027;-83
2022/05/25 10:15:36;;;;;;;20.88;6.72;;;;;;;26.40;41.84;93992.91;5124557;28;20027;-84
2022/05/25 10:18:04;;;;;;;14.77;5.90;;;;;;;26.39;41.44;94001.50;5124526;28;20028;-84
2022/05/25 10:20:48;;;;;;;16.60;7.30;;;;;;;26.33;41.01;93998.44;5124654;28;20031;-82
2022/05/25 10:23:25;;;;;;;19.58;6.22;;;;;;;26.39;41.38;93998.78;5124604;28;20035;-84
2022/05/25 10:25:56;;;;;;;13.35;6.47;;;;;;;26.38;40.82;93994.50;5124751;28;20038;-84
2022/05/25 10:28:35;;;;;;;15.13;6.57;;;;;;;26.41;41.61;94004.59;5124632;28;20029;-84
2022/05/25 10:37:06;;;;;;;13.60;7.20;;;;;;;26.59;42.55;93996.19;5124453;28;20133;-83
2022/05/25 10:39:33;;;;;;;32.70;6.70;;;;;;;26.79;41.68;93997.06;5124501;28;20023;-84
2022/05/25 10:42:18;;;;;;;23.33;7.75;;;;;;;26.98;40.70;93987.38;5106194;28;20080;-77
2022/05/25 10:44:49;;;;;;;12.70;6.35;;;;;;;27.11;41.86;93990.31;5124139;28;20092;-77
2022/05/25 10:47:38;;;;;;;13.50;6.68;;;;;;;27.25;40.97;93980.34;5124255;28;20051;-77
2022/05/25 10:50:11;;;;;;;14.45;6.03;;;;;;;27.38;40.92;93976.59;5105536;28;20043;-77
2022/05/25 10:52:43;;;;;;;14.80;6.50;;;;;;;27.57;40.86;93964.13;5124316;28;20031;-78
2022/05/25 10:55:08;;;;;;;9.25;5.35;;;;;;;27.72;40.52;93967.38;5123915;28;20270;-77
2022/05/25 10:57:59;;;;;;;20.65;6.25;;;;;;;27.90;40.14;93966.28;5123951;28;20031;-78
2022/05/25 11:00:56;;;;;;;9.55;5.47;;;;;;;27.96;39.87;93970.06;5123967;28;20016;-76
2022/05/25 11:03:36;;;;;;;16.63;6.38;;;;;;;28.00;38.86;93959.81;5123977;28;20023;-77
2022/05/25 11:06:34;;;;;;;16.38;5.65;;;;;;;28.08;39.78;93958.47;5123934;28;20166;-77
2022/05/25 11:09:36;;;;;;;13.95;5.32;;;;;;;28.20;38.82;93946.84;5068911;28;20347;-76
2022/05/25 11:12:11;;;;;;;18.35;6.80;;;;;;;28.34;37.52;93955.97;5123421;28;20106;-77
2022/05/25 11:14:51;;;;;;;18.25;6.57;;;;;;;28.41;38.00;93940.16;5123507;28;20076;-76
2022/05/25 11:17:41;;;;;;;13.95;5.50;;;;;;;28.59;38.76;93945.25;5123695;28;20081;-77
2022/05/25 11:20:28;;;;;;;10.20;5.60;;;;;;;28.72;38.19;93939.88;5123638;28;20027;-77
2022/05/25 11:23:20;;;;;;;10.77;5.43;;;;;;;28.88;37.31;93944.59;5123704;28;20019;-77
2022/05/25 11:26:13;;;;;;;16.77;6.45;;;;;;;29.13;37.29;93948.72;5123440;28;20019;-79
2022/05/25 11:29:00;;;;;;;22.35;6.15;;;;;;;29.37;36.47;93941.81;5123339;28;20019;-78
2022/05/25 11:31:41;;;;;;;17.83;7.00;;;;;;;29.46;35.25;93940.44;5123295;28;20016;-78
2022/05/25 11:34:13;;;;;;;21.25;6.40;;;;;;;29.65;35.19;93945.00;5105186;28;20103;-77
2022/05/25 11:37:12;;;;;;;12.75;6.05;;;;;;;29.79;32.94;93943.88;5123179;28;20056;-77
2022/05/25 11:40:13;;;;;;;15.85;6.80;;;;;;;29.92;34.03;93936.44;5104872;28;20024;-76
2022/05/25 11:43:04;;;;;;;16.65;5.82;;;;;;;30.11;34.15;93931.97;5122854;28;20226;-76
2022/05/25 11:45:37;;;;;;;21.45;5.68;;;;;;;30.29;33.84;93933.44;5123077;28;20012;-76
2022/05/25 11:48:41;;;;;;;21.52;5.20;;;;;;;30.38;31.00;93928.06;5123021;28;20043;-76
2022/05/25 11:51:31;;;;;;;23.55;4.97;;;;;;;30.44;28.21;93926.31;5123228;28;20213;-77
2022/05/25 11:54:22;;;;;;;10.10;3.90;;;;;;;30.56;28.89;93922.03;5123024;28;20028;-80
2022/05/25 11:57:24;;;;;;;20.60;3.27;;;;;;;30.55;21.58;93921.25;5123189;28;20278;-80
2022/05/25 12:00:01;;;;;;;;;;;;;;;30.52;21.83;93916.63;5123686;28;20041;-78
2022/05/25 12:03:03;;;;;;;7.75;2.95;;;;;;;30.53;22.33;93911.91;5126196;28;19979;-78
2022/05/25 12:06:27;;;;;;;11.30;2.97;;;;;;;30.70;22.87;93909.81;5109034;28;20046;-78